Terminal Aerodrome Forecast
Issued by NWS

Home | Current Version | Previous Version | Graphics & Text | Print | Product List | Glossary On
Versions: 1 2 3 4 5 6 7 8 9 10 11 12 13 14 15
377
FTUS43 KICT 161720
TAFRSL
TAF
KRSL 161720Z 1618/1718 11007KT P6SM SKC
     FM170300 09005KT P6SM SCT250
     FM171400 12007KT P6SM SCT250=

USA.gov is the U.S. government's official web portal to all federal, state and local government web resources and services.